createdAt,value
2018-09-21T00:01:16.407Z,13.20
2018-09-21T00:03:50.187Z,13.20
2018-09-21T00:06:18.715Z,13.10
2018-09-21T00:08:47.214Z,13.10
2018-09-21T00:11:15.703Z,13.10
2018-09-21T00:13:44.194Z,13.00
2018-09-21T00:16:12.722Z,13.00
2018-09-21T00:18:41.187Z,13.00
2018-09-21T00:21:09.766Z,13.00
2018-09-21T00:23:38.500Z,13.00
2018-09-21T00:26:07.035Z,12.90
2018-09-21T00:28:35.563Z,12.90
2018-09-21T00:31:04.103Z,12.80
2018-09-21T00:33:32.599Z,12.80
2018-09-21T00:36:01.101Z,12.70
2018-09-21T00:38:29.635Z,12.80
2018-09-21T00:40:58.119Z,12.70
2018-09-21T00:43:26.686Z,12.70
2018-09-21T00:45:55.167Z,12.70
2018-09-21T00:48:23.668Z,12.60
2018-09-21T00:50:52.183Z,12.60
2018-09-21T00:53:20.656Z,12.60
2018-09-21T00:55:49.199Z,12.60
2018-09-21T00:58:17.691Z,12.50
2018-09-21T01:00:46.161Z,12.50
2018-09-21T01:03:14.674Z,12.50
2018-09-21T01:05:43.171Z,12.40
2018-09-21T01:08:11.681Z,12.40
2018-09-21T01:10:40.145Z,12.40
2018-09-21T01:13:08.681Z,12.40
2018-09-21T01:15:37.196Z,12.30
2018-09-21T01:18:05.836Z,12.30
2018-09-21T01:20:34.315Z,12.20
2018-09-21T01:23:02.830Z,12.20
2018-09-21T01:25:31.357Z,12.20
2018-09-21T01:27:59.859Z,12.20
2018-09-21T01:30:28.439Z,12.10
2018-09-21T01:32:56.957Z,12.10
2018-09-21T01:35:25.978Z,12.10
2018-09-21T01:37:54.484Z,12.00
2018-09-21T01:40:22.990Z,12.00
2018-09-21T01:42:51.488Z,12.10
2018-09-21T01:45:19.999Z,12.10
2018-09-21T01:47:48.519Z,12.10
2018-09-21T01:50:17.058Z,12.10
2018-09-21T01:52:45.516Z,12.00
2018-09-21T01:55:14.022Z,12.00
2018-09-21T01:57:42.486Z,11.90
2018-09-21T02:00:11.362Z,11.90
2018-09-21T02:02:39.857Z,11.90
2018-09-21T02:05:08.431Z,11.90
2018-09-21T02:07:36.939Z,11.80
2018-09-21T02:10:05.511Z,11.80
2018-09-21T02:12:34.023Z,11.80
2018-09-21T02:15:02.546Z,11.80
2018-09-21T02:17:31.067Z,11.80
2018-09-21T02:19:59.633Z,11.80
2018-09-21T02:22:28.213Z,11.70
2018-09-21T02:24:56.713Z,11.70
2018-09-21T02:27:25.203Z,11.80
2018-09-21T02:29:53.770Z,11.80
2018-09-21T02:32:22.282Z,11.70
2018-09-21T02:34:50.804Z,11.60
2018-09-21T02:37:19.299Z,11.60
2018-09-21T02:39:47.826Z,11.50
2018-09-21T02:42:16.341Z,11.50
2018-09-21T02:44:44.846Z,11.40
2018-09-21T02:47:13.349Z,11.40
2018-09-21T02:49:41.852Z,11.40
2018-09-21T02:52:10.363Z,11.40
2018-09-21T02:54:38.858Z,11.40
2018-09-21T02:57:07.351Z,11.40
2018-09-21T02:59:35.884Z,11.40
2018-09-21T03:02:04.403Z,11.30
2018-09-21T03:04:32.970Z,11.20
2018-09-21T03:07:01.513Z,11.20
2018-09-21T03:09:30.036Z,11.20
2018-09-21T03:11:58.527Z,11.20
2018-09-21T03:14:27.047Z,11.20
2018-09-21T03:16:55.540Z,11.10
2018-09-21T03:19:24.053Z,11.10
2018-09-21T03:21:52.535Z,11.20
2018-09-21T03:24:21.024Z,11.10
2018-09-21T03:26:49.543Z,11.20
2018-09-21T03:29:18.075Z,11.20
2018-09-21T03:31:46.792Z,11.20
2018-09-21T03:34:15.300Z,11.10
2018-09-21T03:36:43.756Z,11.10
2018-09-21T03:39:12.285Z,11.10
2018-09-21T03:41:40.794Z,11.10
2018-09-21T03:44:09.317Z,11.10
2018-09-21T03:46:37.835Z,11.00
2018-09-21T03:49:06.435Z,11.00
2018-09-21T03:51:34.923Z,11.00
2018-09-21T03:54:03.414Z,11.00
2018-09-21T03:56:31.952Z,11.10
2018-09-21T03:59:00.466Z,11.10
2018-09-21T04:01:28.967Z,11.10
2018-09-21T04:03:57.520Z,11.20
2018-09-21T04:06:26.012Z,11.30
2018-09-21T04:08:54.611Z,11.40
2018-09-21T04:11:23.228Z,11.40
2018-09-21T04:13:51.733Z,11.30
2018-09-21T04:16:20.228Z,11.30
2018-09-21T04:18:48.746Z,11.20
2018-09-21T04:21:17.342Z,11.30
2018-09-21T04:23:45.856Z,11.20
2018-09-21T04:26:14.368Z,11.20
2018-09-21T04:28:42.873Z,11.20
2018-09-21T04:31:11.363Z,11.20
2018-09-21T04:33:39.885Z,11.10
2018-09-21T04:36:08.526Z,11.00
2018-09-21T04:38:36.947Z,11.00
2018-09-21T04:41:05.431Z,10.90
2018-09-21T04:43:33.915Z,10.80
2018-09-21T04:46:02.535Z,10.80
2018-09-21T04:48:31.036Z,10.70
2018-09-21T04:50:59.548Z,10.70
2018-09-21T04:53:28.024Z,10.70
2018-09-21T04:55:56.565Z,10.70
2018-09-21T04:58:25.088Z,10.70
2018-09-21T05:00:53.590Z,10.70
2018-09-21T05:03:22.103Z,10.60
2018-09-21T05:05:50.587Z,10.60
2018-09-21T05:08:19.123Z,10.70
2018-09-21T05:10:47.634Z,10.70
2018-09-21T05:13:16.118Z,10.70
2018-09-21T05:15:44.661Z,10.70
2018-09-21T05:18:13.170Z,10.70
2018-09-21T05:20:42.359Z,10.70
2018-09-21T05:23:10.855Z,10.70
2018-09-21T05:25:39.523Z,10.80
2018-09-21T05:28:08.055Z,10.80
2018-09-21T05:30:36.534Z,10.90
2018-09-21T05:33:05.071Z,11.30
2018-09-21T05:35:33.688Z,11.90
2018-09-21T05:38:02.213Z,12.50
2018-09-21T05:40:30.746Z,13.00
2018-09-21T05:42:59.238Z,13.50
2018-09-21T05:45:27.750Z,13.90
2018-09-21T05:47:56.239Z,14.50
2018-09-21T05:50:24.760Z,15.10
2018-09-21T05:52:53.383Z,15.50
2018-09-21T05:55:21.890Z,16.00
2018-09-21T05:57:50.426Z,16.40
2018-09-21T06:00:18.954Z,16.90
2018-09-21T06:02:47.541Z,17.30
2018-09-21T06:05:16.053Z,17.70
2018-09-21T06:07:44.570Z,18.10
2018-09-21T06:10:13.199Z,18.50
2018-09-21T06:12:41.571Z,18.90
2018-09-21T06:15:10.791Z,19.30
2018-09-21T06:17:39.315Z,19.70
2018-09-21T06:20:12.609Z,20.20
2018-09-21T06:22:44.981Z,20.50
2018-09-21T06:25:05.455Z,20.80
2018-09-21T06:27:33.972Z,21.30
2018-09-21T06:30:02.517Z,21.70
2018-09-21T06:32:31.050Z,22.00
2018-09-21T06:34:59.601Z,22.40
2018-09-21T06:37:28.131Z,22.40
2018-09-21T06:39:56.789Z,22.70
2018-09-21T06:42:25.341Z,22.90
2018-09-21T06:44:53.908Z,23.20
2018-09-21T06:47:22.460Z,23.50
2018-09-21T06:49:50.974Z,23.90
2018-09-21T06:52:19.482Z,24.00
2018-09-21T06:54:47.985Z,24.00
2018-09-21T06:57:16.510Z,24.30
2018-09-21T06:59:45.009Z,24.70
2018-09-21T07:02:13.541Z,25.20
2018-09-21T07:04:42.060Z,25.90
2018-09-21T07:07:10.597Z,26.20
2018-09-21T07:09:39.132Z,26.50
2018-09-21T07:12:07.660Z,26.50
2018-09-21T07:14:36.191Z,26.80
2018-09-21T07:17:04.761Z,27.20
2018-09-21T07:19:33.291Z,27.60
2018-09-21T07:22:01.818Z,27.90
2018-09-21T07:24:30.319Z,28.20
2018-09-21T07:26:58.869Z,28.50
2018-09-21T07:29:27.443Z,28.80
2018-09-21T07:31:55.980Z,29.30
2018-09-21T07:34:24.466Z,29.90
2018-09-21T07:36:52.999Z,30.00
2018-09-21T07:39:21.508Z,30.30
2018-09-21T07:41:50.021Z,31.00
2018-09-21T07:44:18.540Z,31.30
2018-09-21T07:46:47.056Z,31.60
2018-09-21T07:49:15.657Z,31.90
2018-09-21T07:51:44.148Z,32.10
2018-09-21T07:54:12.718Z,31.90
2018-09-21T07:56:41.234Z,31.60
2018-09-21T07:59:09.773Z,31.20
2018-09-21T08:01:38.322Z,31.10
2018-09-21T08:04:06.820Z,31.40
2018-09-21T08:06:35.368Z,31.30
2018-09-21T08:09:04.564Z,31.00
2018-09-21T08:11:33.060Z,31.20
2018-09-21T08:14:01.575Z,31.30
2018-09-21T08:16:30.090Z,31.00
2018-09-21T08:18:58.607Z,31.10
2018-09-21T08:21:27.087Z,31.00
2018-09-21T08:23:55.643Z,30.60
2018-09-21T08:26:25.978Z,30.20
2018-09-21T08:28:54.906Z,29.70
2018-09-21T08:31:24.276Z,29.10
2018-09-21T08:33:53.628Z,28.60
2018-09-21T08:36:22.896Z,28.20
2018-09-21T08:38:51.757Z,28.10
2018-09-21T08:41:20.284Z,27.90
2018-09-21T08:43:48.845Z,27.60
2018-09-21T08:46:17.746Z,27.40
2018-09-21T08:48:47.480Z,27.30
2018-09-21T08:51:16.230Z,27.20
2018-09-21T08:53:45.201Z,27.30
2018-09-21T08:56:13.723Z,27.30
2018-09-21T08:58:42.253Z,27.40
2018-09-21T09:01:10.811Z,27.30
2018-09-21T09:03:39.322Z,27.40
2018-09-21T09:06:08.380Z,27.50
2018-09-21T09:08:36.871Z,27.50
2018-09-21T09:11:05.488Z,27.60
2018-09-21T09:13:34.049Z,27.70
2018-09-21T09:16:02.527Z,27.80
2018-09-21T09:18:31.056Z,27.80
2018-09-21T09:20:59.577Z,27.70
2018-09-21T09:23:28.122Z,27.70
2018-09-21T09:25:56.598Z,27.80
2018-09-21T09:28:25.079Z,27.90
2018-09-21T09:30:53.599Z,28.00
2018-09-21T09:33:22.111Z,28.10
2018-09-21T09:35:50.637Z,28.10
2018-09-21T09:38:19.125Z,28.00
2018-09-21T09:40:47.688Z,28.10
2018-09-21T09:43:16.159Z,28.10
2018-09-21T09:45:44.635Z,28.00
2018-09-21T09:48:13.134Z,28.00
2018-09-21T09:50:41.656Z,28.10
2018-09-21T09:53:10.159Z,28.00
2018-09-21T09:55:38.651Z,28.00
2018-09-21T09:58:07.155Z,28.10
2018-09-21T10:00:41.103Z,28.10
2018-09-21T10:03:09.767Z,28.10
2018-09-21T10:05:42.467Z,28.10
2018-09-21T10:08:11.831Z,28.00
2018-09-21T10:10:40.799Z,28.10
2018-09-21T10:13:09.907Z,28.20
2018-09-21T10:15:38.450Z,28.30
2018-09-21T10:18:07.192Z,28.40
2018-09-21T10:20:35.747Z,28.60
2018-09-21T10:23:04.454Z,28.70
2018-09-21T10:25:33.373Z,28.90
2018-09-21T10:28:02.228Z,28.90
2018-09-21T10:30:30.726Z,29.10
2018-09-21T10:32:59.255Z,29.10
2018-09-21T10:35:27.880Z,29.10
2018-09-21T10:37:56.494Z,29.30
2018-09-21T10:40:25.312Z,29.50
2018-09-21T10:42:53.857Z,29.70
2018-09-21T10:45:22.379Z,29.80
2018-09-21T10:47:51.143Z,29.70
2018-09-21T10:50:19.643Z,29.60
2018-09-21T10:52:48.232Z,29.70
2018-09-21T10:55:16.707Z,29.70
2018-09-21T10:57:45.223Z,29.60
2018-09-21T11:00:13.741Z,29.60
2018-09-21T11:02:42.249Z,29.50
2018-09-21T11:05:10.796Z,29.50
2018-09-21T11:07:39.328Z,29.40
2018-09-21T11:10:07.881Z,29.30
2018-09-21T11:12:36.397Z,29.10
2018-09-21T11:15:04.945Z,29.00
2018-09-21T11:17:33.443Z,28.90
2018-09-21T11:20:02.005Z,29.00
2018-09-21T11:22:30.622Z,28.90
2018-09-21T11:24:59.148Z,28.90
2018-09-21T11:27:27.669Z,28.90
2018-09-21T11:29:56.169Z,28.90
2018-09-21T11:32:24.699Z,28.90
2018-09-21T11:34:53.210Z,28.90
2018-09-21T11:37:21.768Z,28.80
2018-09-21T11:39:50.285Z,28.80
2018-09-21T11:42:18.786Z,28.90
2018-09-21T11:44:47.264Z,29.10
2018-09-21T11:47:15.869Z,29.30
2018-09-21T11:49:44.296Z,29.30
2018-09-21T11:52:12.781Z,29.30
2018-09-21T11:54:41.300Z,29.30
2018-09-21T11:57:09.774Z,29.60
2018-09-21T11:59:38.321Z,29.60
2018-09-21T12:02:13.717Z,29.70
2018-09-21T12:04:42.225Z,29.80
2018-09-21T12:07:10.726Z,29.90
2018-09-21T12:09:39.275Z,30.00
2018-09-21T12:12:07.763Z,30.00
2018-09-21T12:14:36.292Z,30.00
2018-09-21T12:17:04.853Z,30.10
2018-09-21T12:19:33.350Z,30.10
2018-09-21T12:22:01.875Z,30.10
2018-09-21T12:24:30.346Z,30.10
2018-09-21T12:26:58.842Z,30.20
2018-09-21T12:29:27.335Z,30.00
2018-09-21T12:31:55.861Z,29.80
2018-09-21T12:34:24.345Z,29.70
2018-09-21T12:36:52.871Z,29.70
2018-09-21T12:39:21.364Z,29.90
2018-09-21T12:41:49.887Z,29.90
2018-09-21T12:44:18.820Z,30.00
2018-09-21T12:46:47.317Z,30.00
2018-09-21T12:49:15.828Z,30.00
2018-09-21T12:51:44.296Z,30.00
2018-09-21T12:54:12.799Z,30.10
2018-09-21T12:56:41.339Z,30.20
2018-09-21T12:59:09.832Z,30.20
2018-09-21T13:01:38.308Z,30.20
2018-09-21T13:04:06.920Z,30.20
2018-09-21T13:06:35.392Z,30.20
2018-09-21T13:09:05.059Z,30.10
2018-09-21T13:11:33.545Z,30.10
2018-09-21T13:14:02.052Z,30.00
2018-09-21T13:16:30.594Z,30.00
2018-09-21T13:18:59.067Z,30.00
2018-09-21T13:21:27.551Z,29.90
2018-09-21T13:23:56.060Z,29.90
2018-09-21T13:26:24.596Z,29.90
2018-09-21T13:28:53.207Z,30.00
2018-09-21T13:31:21.740Z,30.00
2018-09-21T13:33:50.263Z,30.00
2018-09-21T13:36:18.765Z,30.00
2018-09-21T13:38:47.277Z,30.20
2018-09-21T13:41:15.805Z,30.10
2018-09-21T13:43:44.348Z,29.90
2018-09-21T13:46:12.891Z,29.80
2018-09-21T13:48:41.544Z,29.70
2018-09-21T13:51:10.051Z,29.70
2018-09-21T13:53:38.601Z,29.50
2018-09-21T13:56:07.147Z,29.40
2018-09-21T13:58:35.694Z,29.30
2018-09-21T14:01:04.248Z,29.20
2018-09-21T14:03:32.795Z,29.20
2018-09-21T14:06:04.993Z,29.00
2018-09-21T14:08:34.123Z,28.80
2018-09-21T14:11:02.672Z,28.60
2018-09-21T14:13:31.149Z,28.40
2018-09-21T14:15:59.706Z,28.30
2018-09-21T14:18:28.191Z,28.10
2018-09-21T14:20:56.823Z,28.00
2018-09-21T14:23:25.371Z,27.90
2018-09-21T14:25:53.885Z,27.90
2018-09-21T14:28:22.438Z,27.80
2018-09-21T14:30:50.922Z,27.80
2018-09-21T14:33:19.464Z,27.90
2018-09-21T14:35:48.005Z,27.90
2018-09-21T14:38:16.472Z,27.80
2018-09-21T14:40:44.992Z,27.70
2018-09-21T14:43:13.503Z,27.70
2018-09-21T14:45:42.052Z,27.70
2018-09-21T14:48:10.584Z,27.70
2018-09-21T14:50:39.169Z,27.60
2018-09-21T14:53:07.610Z,27.40
2018-09-21T14:55:36.143Z,27.30
2018-09-21T14:58:04.703Z,27.30
2018-09-21T15:00:33.259Z,27.30
2018-09-21T15:03:01.801Z,27.20
2018-09-21T15:05:30.379Z,27.20
2018-09-21T15:07:58.859Z,27.00
2018-09-21T15:10:27.372Z,26.70
2018-09-21T15:12:55.867Z,26.50
2018-09-21T15:15:24.366Z,26.10
2018-09-21T15:17:52.852Z,25.70
2018-09-21T15:20:21.311Z,25.40
2018-09-21T15:22:49.810Z,25.10
2018-09-21T15:25:18.271Z,25.20
2018-09-21T15:27:46.807Z,25.20
2018-09-21T15:30:15.330Z,25.40
2018-09-21T15:32:43.829Z,25.20
2018-09-21T15:35:12.325Z,25.10
2018-09-21T15:37:40.811Z,25.00
2018-09-21T15:40:09.359Z,24.90
2018-09-21T15:42:38.052Z,24.70
2018-09-21T15:45:06.703Z,24.60
2018-09-21T15:47:35.184Z,24.30
2018-09-21T15:50:03.797Z,24.10
2018-09-21T15:52:32.304Z,24.00
2018-09-21T15:55:00.835Z,24.10
2018-09-21T15:57:29.343Z,24.10
2018-09-21T15:59:57.839Z,24.20
2018-09-21T16:02:26.348Z,24.30
2018-09-21T16:04:54.852Z,24.20
2018-09-21T16:07:23.372Z,24.20
2018-09-21T16:09:51.907Z,24.30
2018-09-21T16:12:20.480Z,24.10
2018-09-21T16:14:49.004Z,24.00
2018-09-21T16:17:17.512Z,23.80
2018-09-21T16:19:46.000Z,23.70
2018-09-21T16:22:14.531Z,23.70
2018-09-21T16:24:43.372Z,23.80
2018-09-21T16:27:11.896Z,23.60
2018-09-21T16:29:40.399Z,23.60
2018-09-21T16:32:08.889Z,23.40
2018-09-21T16:34:37.503Z,23.40
2018-09-21T16:37:06.053Z,23.50
2018-09-21T16:39:34.561Z,23.60
2018-09-21T16:42:03.055Z,23.60
2018-09-21T16:44:31.659Z,23.60
2018-09-21T16:47:00.146Z,23.60
2018-09-21T16:49:28.704Z,23.60
2018-09-21T16:51:57.215Z,23.60
2018-09-21T16:54:25.692Z,23.40
2018-09-21T16:56:54.194Z,23.40
2018-09-21T16:59:22.671Z,23.20
2018-09-21T17:01:51.164Z,23.10
2018-09-21T17:04:19.674Z,23.00
2018-09-21T17:06:50.153Z,22.90
2018-09-21T17:09:18.748Z,22.80
2018-09-21T17:11:47.619Z,22.70
2018-09-21T17:14:16.114Z,22.60
2018-09-21T17:16:44.706Z,22.40
2018-09-21T17:19:13.179Z,22.20
2018-09-21T17:21:41.687Z,22.00
2018-09-21T17:24:10.244Z,22.20
2018-09-21T17:26:41.255Z,22.30
2018-09-21T17:29:09.779Z,22.40
2018-09-21T17:31:38.356Z,22.50
2018-09-21T17:34:06.998Z,22.40
2018-09-21T17:36:35.723Z,22.30
2018-09-21T17:39:04.940Z,22.30
2018-09-21T17:41:33.469Z,22.30
2018-09-21T17:44:01.999Z,22.50
2018-09-21T17:46:30.609Z,22.50
2018-09-21T17:48:59.116Z,22.50
2018-09-21T17:51:27.700Z,22.50
2018-09-21T17:53:56.184Z,22.50
2018-09-21T17:56:24.690Z,22.30
2018-09-21T17:58:53.432Z,22.20
2018-09-21T18:01:21.924Z,22.20
2018-09-21T18:03:50.462Z,22.20
2018-09-21T18:06:18.969Z,22.10
2018-09-21T18:08:47.468Z,22.00
2018-09-21T18:11:15.991Z,22.10
2018-09-21T18:13:44.481Z,21.90
2018-09-21T18:16:13.078Z,21.80
2018-09-21T18:18:41.528Z,21.70
2018-09-21T18:21:10.035Z,21.60
2018-09-21T18:23:38.541Z,21.40
2018-09-21T18:26:07.363Z,21.30
2018-09-21T18:28:36.131Z,21.40
2018-09-21T18:31:04.601Z,21.40
2018-09-21T18:33:33.125Z,21.40
2018-09-21T18:36:01.629Z,21.30
2018-09-21T18:38:30.200Z,21.30
2018-09-21T18:40:58.855Z,21.20
2018-09-21T18:43:27.571Z,21.20
2018-09-21T18:45:56.112Z,21.20
2018-09-21T18:48:24.595Z,21.20
2018-09-21T18:50:53.099Z,21.20
2018-09-21T18:53:21.607Z,21.20
2018-09-21T18:55:50.165Z,21.30
2018-09-21T18:58:18.647Z,21.20
2018-09-21T19:00:47.161Z,21.20
2018-09-21T19:03:15.704Z,21.10
2018-09-21T19:05:44.187Z,21.00
2018-09-21T19:08:12.702Z,20.90
2018-09-21T19:10:41.211Z,20.80
2018-09-21T19:13:09.911Z,20.70
2018-09-21T19:15:38.391Z,20.70
2018-09-21T19:18:07.017Z,20.50
2018-09-21T19:20:35.547Z,20.50
2018-09-21T19:23:04.286Z,20.40
2018-09-21T19:25:32.820Z,20.30
2018-09-21T19:28:01.296Z,20.10
2018-09-21T19:30:29.844Z,19.90
2018-09-21T19:32:58.439Z,20.00
2018-09-21T19:35:26.959Z,20.00
2018-09-21T19:37:55.463Z,19.90
2018-09-21T19:40:23.959Z,19.90
2018-09-21T19:42:52.573Z,19.80
2018-09-21T19:45:21.151Z,19.80
2018-09-21T19:47:49.539Z,19.60
2018-09-21T19:50:18.060Z,19.00
2018-09-21T19:52:46.531Z,18.60
2018-09-21T19:55:15.024Z,18.10
2018-09-21T19:57:43.515Z,17.70
2018-09-21T20:00:12.021Z,17.20
2018-09-21T20:02:40.715Z,16.80
2018-09-21T20:05:09.203Z,16.60
2018-09-21T20:07:37.700Z,16.40
2018-09-21T20:10:06.259Z,16.30
2018-09-21T20:12:34.760Z,16.20
2018-09-21T20:15:03.316Z,16.10
2018-09-21T20:17:31.791Z,16.30
2018-09-21T20:20:00.319Z,16.30
2018-09-21T20:22:28.839Z,16.20
2018-09-21T20:24:57.356Z,16.20
2018-09-21T20:27:25.827Z,16.20
2018-09-21T20:29:59.747Z,16.10
2018-09-21T20:32:33.452Z,16.00
2018-09-21T20:35:01.963Z,15.70
2018-09-21T20:37:30.454Z,15.70
2018-09-21T20:39:59.008Z,15.50
2018-09-21T20:42:27.531Z,15.40
2018-09-21T20:44:56.032Z,15.40
2018-09-21T20:47:24.527Z,15.40
2018-09-21T20:49:53.049Z,15.30
2018-09-21T20:52:21.548Z,15.10
2018-09-21T20:54:50.069Z,15.00
2018-09-21T20:57:18.603Z,15.00
2018-09-21T20:59:47.084Z,14.80
2018-09-21T21:02:15.673Z,14.70
2018-09-21T21:04:44.209Z,14.70
2018-09-21T21:07:12.716Z,14.70
2018-09-21T21:09:41.210Z,14.40
2018-09-21T21:12:09.728Z,14.30
2018-09-21T21:14:38.214Z,14.30
2018-09-21T21:17:06.753Z,14.10
2018-09-21T21:19:35.236Z,13.90
2018-09-21T21:22:03.711Z,13.70
2018-09-21T21:24:32.383Z,13.60
2018-09-21T21:27:00.883Z,13.60
2018-09-21T21:29:29.383Z,13.40
2018-09-21T21:31:57.956Z,13.40
2018-09-21T21:34:26.447Z,13.40
2018-09-21T21:36:55.241Z,13.20
2018-09-21T21:39:24.045Z,13.10
2018-09-21T21:41:52.559Z,13.10
2018-09-21T21:44:21.024Z,13.00
2018-09-21T21:46:49.529Z,13.00
2018-09-21T21:49:18.038Z,12.90
2018-09-21T21:51:46.552Z,12.90
2018-09-21T21:54:15.044Z,13.00
2018-09-21T21:56:43.531Z,13.20
2018-09-21T21:59:12.034Z,13.30
2018-09-21T22:01:46.920Z,13.10
2018-09-21T22:04:16.595Z,12.90
2018-09-21T22:06:45.115Z,13.10
2018-09-21T22:09:13.623Z,13.10
2018-09-21T22:11:47.555Z,12.90
2018-09-21T22:14:16.174Z,12.80
2018-09-21T22:16:44.655Z,12.80
2018-09-21T22:19:13.175Z,12.80
2018-09-21T22:21:41.700Z,12.90
2018-09-21T22:24:10.168Z,12.90
2018-09-21T22:26:39.085Z,12.90
2018-09-21T22:29:07.524Z,13.00
2018-09-21T22:31:36.032Z,13.10
2018-09-21T22:34:04.530Z,13.10
2018-09-21T22:36:33.060Z,13.20
2018-09-21T22:39:01.564Z,13.30
2018-09-21T22:41:31.099Z,13.30
2018-09-21T22:43:59.605Z,13.20
2018-09-21T22:46:28.143Z,13.20
2018-09-21T22:48:57.103Z,13.10
2018-09-21T22:51:25.632Z,13.10
2018-09-21T22:53:54.147Z,12.90
2018-09-21T22:56:22.660Z,13.00
2018-09-21T22:58:51.175Z,13.10
2018-09-21T23:01:19.672Z,13.20
2018-09-21T23:03:48.212Z,13.10
2018-09-21T23:06:16.732Z,13.10
2018-09-21T23:08:45.276Z,13.10
2018-09-21T23:11:13.789Z,13.00
2018-09-21T23:13:42.271Z,13.00
2018-09-21T23:16:10.793Z,13.00
2018-09-21T23:18:39.287Z,12.90
2018-09-21T23:21:07.872Z,12.90
2018-09-21T23:23:36.373Z,12.90
2018-09-21T23:26:04.898Z,12.70
2018-09-21T23:28:33.396Z,12.60
2018-09-21T23:31:01.926Z,12.70
2018-09-21T23:33:30.444Z,12.80
2018-09-21T23:35:58.939Z,12.60
2018-09-21T23:38:27.548Z,12.70
2018-09-21T23:40:56.018Z,12.80
2018-09-21T23:43:24.544Z,12.90
2018-09-21T23:45:53.023Z,12.70
2018-09-21T23:48:21.502Z,12.50
2018-09-21T23:50:50.863Z,12.70
2018-09-21T23:53:19.397Z,12.70
2018-09-21T23:55:47.943Z,12.70
2018-09-21T23:58:16.432Z,12.70
